sensor_id;sensor_type;location;lat;lon;timestamp;P1;durP1;ratioP1;P2;durP2;ratioP2
65706;SDS011;52423;43.512;5.220;2022-12-18T00:01:22;31.83;;;20.27;;
65706;SDS011;52423;43.512;5.220;2022-12-18T00:03:49;35.47;;;21.35;;
65706;SDS011;52423;43.512;5.220;2022-12-18T00:06:16;31.75;;;19.73;;
65706;SDS011;52423;43.512;5.220;2022-12-18T00:08:41;32.53;;;18.83;;
65706;SDS011;52423;43.512;5.220;2022-12-18T00:11:08;33.28;;;20.13;;
65706;SDS011;52423;43.512;5.220;2022-12-18T00:13:36;36.17;;;20.60;;
65706;SDS011;52423;43.512;5.220;2022-12-18T00:16:02;28.42;;;17.95;;
65706;SDS011;52423;43.512;5.220;2022-12-18T00:18:28;31.13;;;19.88;;
65706;SDS011;52423;43.512;5.220;2022-12-18T00:20:54;29.42;;;17.38;;
65706;SDS011;52423;43.512;5.220;2022-12-18T00:23:24;25.15;;;15.18;;
65706;SDS011;52423;43.512;5.220;2022-12-18T00:25:49;21.33;;;13.93;;
65706;SDS011;52423;43.512;5.220;2022-12-18T00:28:14;21.73;;;14.52;;
65706;SDS011;52423;43.512;5.220;2022-12-18T00:30:40;24.63;;;16.65;;
65706;SDS011;52423;43.512;5.220;2022-12-18T00:33:05;21.35;;;15.55;;
65706;SDS011;52423;43.512;5.220;2022-12-18T00:35:31;25.52;;;16.63;;
65706;SDS011;52423;43.512;5.220;2022-12-18T00:37:56;24.27;;;16.52;;
65706;SDS011;52423;43.512;5.220;2022-12-18T00:40:22;24.08;;;16.45;;
65706;SDS011;52423;43.512;5.220;2022-12-18T00:42:47;24.65;;;16.15;;
65706;SDS011;52423;43.512;5.220;2022-12-18T00:45:25;24.80;;;16.30;;
65706;SDS011;52423;43.512;5.220;2022-12-18T00:47:52;23.08;;;13.73;;
65706;SDS011;52423;43.512;5.220;2022-12-18T00:50:18;16.92;;;10.88;;
65706;SDS011;52423;43.512;5.220;2022-12-18T00:52:43;12.43;;;9.40;;
65706;SDS011;52423;43.512;5.220;2022-12-18T00:55:09;12.52;;;9.20;;
65706;SDS011;52423;43.512;5.220;2022-12-18T00:57:35;13.90;;;9.55;;
65706;SDS011;52423;43.512;5.220;2022-12-18T01:00:00;13.77;;;9.10;;
65706;SDS011;52423;43.512;5.220;2022-12-18T01:02:26;13.57;;;8.75;;
65706;SDS011;52423;43.512;5.220;2022-12-18T01:04:51;14.35;;;9.43;;
65706;SDS011;52423;43.512;5.220;2022-12-18T01:07:17;17.08;;;9.20;;
65706;SDS011;52423;43.512;5.220;2022-12-18T01:09:42;15.10;;;10.93;;
65706;SDS011;52423;43.512;5.220;2022-12-18T01:12:07;15.55;;;7.88;;
65706;SDS011;52423;43.512;5.220;2022-12-18T01:14:33;9.95;;;7.57;;
65706;SDS011;52423;43.512;5.220;2022-12-18T01:16:58;11.18;;;9.10;;
65706;SDS011;52423;43.512;5.220;2022-12-18T01:19:23;12.57;;;7.55;;
65706;SDS011;52423;43.512;5.220;2022-12-18T01:21:49;10.73;;;7.63;;
65706;SDS011;52423;43.512;5.220;2022-12-18T01:24:14;8.27;;;6.85;;
65706;SDS011;52423;43.512;5.220;2022-12-18T01:26:40;9.23;;;6.68;;
65706;SDS011;52423;43.512;5.220;2022-12-18T01:29:05;8.52;;;5.88;;
65706;SDS011;52423;43.512;5.220;2022-12-18T01:31:32;12.45;;;8.13;;
65706;SDS011;52423;43.512;5.220;2022-12-18T01:34:00;10.73;;;9.10;;
65706;SDS011;52423;43.512;5.220;2022-12-18T01:36:30;14.13;;;9.13;;
65706;SDS011;52423;43.512;5.220;2022-12-18T01:38:58;11.52;;;8.88;;
65706;SDS011;52423;43.512;5.220;2022-12-18T01:41:29;14.23;;;10.45;;
65706;SDS011;52423;43.512;5.220;2022-12-18T01:47:21;16.88;;;8.88;;
65706;SDS011;52423;43.512;5.220;2022-12-18T01:49:48;11.63;;;9.25;;
65706;SDS011;52423;43.512;5.220;2022-12-18T01:52:14;11.02;;;8.38;;
65706;SDS011;52423;43.512;5.220;2022-12-18T01:54:40;12.80;;;8.75;;
65706;SDS011;52423;43.512;5.220;2022-12-18T01:57:06;8.80;;;7.68;;
65706;SDS011;52423;43.512;5.220;2022-12-18T01:59:32;10.45;;;7.60;;
65706;SDS011;52423;43.512;5.220;2022-12-18T02:01:59;7.43;;;6.60;;
65706;SDS011;52423;43.512;5.220;2022-12-18T02:04:26;13.00;;;7.30;;
65706;SDS011;52423;43.512;5.220;2022-12-18T02:09:50;16.33;;;8.55;;
65706;SDS011;52423;43.512;5.220;2022-12-18T02:12:34;13.43;;;8.63;;
65706;SDS011;52423;43.512;5.220;2022-12-18T02:15:17;6.80;;;5.25;;
65706;SDS011;52423;43.512;5.220;2022-12-18T02:17:54;6.28;;;5.40;;
65706;SDS011;52423;43.512;5.220;2022-12-18T02:20:36;7.68;;;5.18;;
65706;SDS011;52423;43.512;5.220;2022-12-18T02:29:01;6.43;;;5.00;;
65706;SDS011;52423;43.512;5.220;2022-12-18T02:31:31;6.47;;;5.00;;
65706;SDS011;52423;43.512;5.220;2022-12-18T02:34:07;6.25;;;4.70;;
65706;SDS011;52423;43.512;5.220;2022-12-18T02:36:34;5.60;;;4.63;;
65706;SDS011;52423;43.512;5.220;2022-12-18T02:39:03;7.18;;;4.93;;
65706;SDS011;52423;43.512;5.220;2022-12-18T02:41:31;6.50;;;4.50;;
65706;SDS011;52423;43.512;5.220;2022-12-18T02:43:57;6.25;;;4.53;;
65706;SDS011;52423;43.512;5.220;2022-12-18T02:46:25;8.18;;;4.38;;
65706;SDS011;52423;43.512;5.220;2022-12-18T02:49:09;7.30;;;5.35;;
65706;SDS011;52423;43.512;5.220;2022-12-18T02:51:46;5.53;;;4.68;;
65706;SDS011;52423;43.512;5.220;2022-12-18T02:54:26;11.38;;;5.15;;
65706;SDS011;52423;43.512;5.220;2022-12-18T02:57:13;7.78;;;4.72;;
65706;SDS011;52423;43.512;5.220;2022-12-18T02:59:49;4.82;;;4.32;;
65706;SDS011;52423;43.512;5.220;2022-12-18T03:02:47;5.70;;;4.32;;
65706;SDS011;52423;43.512;5.220;2022-12-18T03:05:21;6.40;;;4.65;;
65706;SDS011;52423;43.512;5.220;2022-12-18T03:10:51;5.57;;;4.63;;
65706;SDS011;52423;43.512;5.220;2022-12-18T03:16:11;4.82;;;4.28;;
65706;SDS011;52423;43.512;5.220;2022-12-18T03:21:11;6.10;;;3.95;;
65706;SDS011;52423;43.512;5.220;2022-12-18T03:23:42;4.85;;;4.25;;
65706;SDS011;52423;43.512;5.220;2022-12-18T03:26:12;4.82;;;4.20;;
65706;SDS011;52423;43.512;5.220;2022-12-18T03:28:43;6.10;;;4.28;;
65706;SDS011;52423;43.512;5.220;2022-12-18T03:31:15;6.57;;;4.57;;
65706;SDS011;52423;43.512;5.220;2022-12-18T03:33:43;5.20;;;4.63;;
65706;SDS011;52423;43.512;5.220;2022-12-18T03:36:23;7.40;;;4.70;;
65706;SDS011;52423;43.512;5.220;2022-12-18T03:38:49;6.97;;;4.70;;
65706;SDS011;52423;43.512;5.220;2022-12-18T03:43:58;6.00;;;4.72;;
65706;SDS011;52423;43.512;5.220;2022-12-18T03:46:47;5.53;;;4.25;;
65706;SDS011;52423;43.512;5.220;2022-12-18T03:52:02;5.70;;;4.38;;
65706;SDS011;52423;43.512;5.220;2022-12-18T03:54:31;6.45;;;4.75;;
65706;SDS011;52423;43.512;5.220;2022-12-18T03:57:03;6.28;;;4.85;;
65706;SDS011;52423;43.512;5.220;2022-12-18T03:59:31;12.23;;;5.20;;
65706;SDS011;52423;43.512;5.220;2022-12-18T04:01:57;6.72;;;5.10;;
65706;SDS011;52423;43.512;5.220;2022-12-18T04:04:26;5.97;;;4.88;;
65706;SDS011;52423;43.512;5.220;2022-12-18T04:06:53;6.22;;;4.75;;
65706;SDS011;52423;43.512;5.220;2022-12-18T04:09:20;7.63;;;5.45;;
65706;SDS011;52423;43.512;5.220;2022-12-18T04:11:46;7.65;;;6.00;;
65706;SDS011;52423;43.512;5.220;2022-12-18T04:14:12;10.27;;;5.53;;
65706;SDS011;52423;43.512;5.220;2022-12-18T04:16:37;6.88;;;5.20;;
65706;SDS011;52423;43.512;5.220;2022-12-18T04:19:03;5.78;;;5.18;;
65706;SDS011;52423;43.512;5.220;2022-12-18T04:21:29;5.80;;;5.20;;
65706;SDS011;52423;43.512;5.220;2022-12-18T04:23:54;7.05;;;5.40;;
65706;SDS011;52423;43.512;5.220;2022-12-18T04:26:20;8.40;;;5.00;;
65706;SDS011;52423;43.512;5.220;2022-12-18T04:28:45;6.57;;;5.18;;
65706;SDS011;52423;43.512;5.220;2022-12-18T04:31:11;6.93;;;4.80;;
65706;SDS011;52423;43.512;5.220;2022-12-18T04:33:36;7.85;;;5.05;;
65706;SDS011;52423;43.512;5.220;2022-12-18T04:36:01;6.38;;;5.20;;
65706;SDS011;52423;43.512;5.220;2022-12-18T04:38:27;7.35;;;5.03;;
65706;SDS011;52423;43.512;5.220;2022-12-18T04:40:52;7.38;;;5.15;;
65706;SDS011;52423;43.512;5.220;2022-12-18T04:43:18;6.32;;;5.40;;
65706;SDS011;52423;43.512;5.220;2022-12-18T04:45:43;7.78;;;5.00;;
65706;SDS011;52423;43.512;5.220;2022-12-18T04:48:09;6.70;;;4.88;;
65706;SDS011;52423;43.512;5.220;2022-12-18T04:50:34;7.43;;;4.85;;
65706;SDS011;52423;43.512;5.220;2022-12-18T04:52:59;7.53;;;4.72;;
65706;SDS011;52423;43.512;5.220;2022-12-18T04:55:25;7.85;;;5.32;;
65706;SDS011;52423;43.512;5.220;2022-12-18T04:57:51;5.40;;;4.18;;
65706;SDS011;52423;43.512;5.220;2022-12-18T05:00:17;7.13;;;4.55;;
65706;SDS011;52423;43.512;5.220;2022-12-18T05:02:42;6.03;;;4.30;;
65706;SDS011;52423;43.512;5.220;2022-12-18T05:05:08;7.13;;;4.05;;
65706;SDS011;52423;43.512;5.220;2022-12-18T05:07:33;7.05;;;4.63;;
65706;SDS011;52423;43.512;5.220;2022-12-18T05:09:59;6.57;;;4.20;;
65706;SDS011;52423;43.512;5.220;2022-12-18T05:12:24;5.57;;;4.35;;
65706;SDS011;52423;43.512;5.220;2022-12-18T05:14:50;7.13;;;4.30;;
65706;SDS011;52423;43.512;5.220;2022-12-18T05:17:15;6.05;;;4.60;;
65706;SDS011;52423;43.512;5.220;2022-12-18T05:19:41;5.55;;;4.35;;
65706;SDS011;52423;43.512;5.220;2022-12-18T05:22:06;9.35;;;3.80;;
65706;SDS011;52423;43.512;5.220;2022-12-18T05:24:31;4.80;;;3.90;;
65706;SDS011;52423;43.512;5.220;2022-12-18T05:26:57;4.28;;;3.85;;
65706;SDS011;52423;43.512;5.220;2022-12-18T05:29:22;4.38;;;3.30;;
65706;SDS011;52423;43.512;5.220;2022-12-18T05:31:48;5.68;;;3.50;;
65706;SDS011;52423;43.512;5.220;2022-12-18T05:34:13;6.28;;;3.67;;
65706;SDS011;52423;43.512;5.220;2022-12-18T05:36:38;6.18;;;3.80;;
65706;SDS011;52423;43.512;5.220;2022-12-18T05:39:04;4.55;;;3.72;;
65706;SDS011;52423;43.512;5.220;2022-12-18T05:41:29;4.65;;;4.20;;
65706;SDS011;52423;43.512;5.220;2022-12-18T05:43:55;6.25;;;3.85;;
65706;SDS011;52423;43.512;5.220;2022-12-18T05:46:20;5.15;;;3.75;;
65706;SDS011;52423;43.512;5.220;2022-12-18T05:48:46;5.32;;;4.05;;
65706;SDS011;52423;43.512;5.220;2022-12-18T05:51:15;5.00;;;3.78;;
65706;SDS011;52423;43.512;5.220;2022-12-18T05:53:42;5.05;;;4.38;;
65706;SDS011;52423;43.512;5.220;2022-12-18T05:56:09;10.40;;;4.13;;
65706;SDS011;52423;43.512;5.220;2022-12-18T05:58:42;6.45;;;3.75;;
65706;SDS011;52423;43.512;5.220;2022-12-18T06:01:11;5.13;;;4.03;;
65706;SDS011;52423;43.512;5.220;2022-12-18T06:03:39;7.22;;;3.72;;
65706;SDS011;52423;43.512;5.220;2022-12-18T06:06:12;5.07;;;4.28;;
65706;SDS011;52423;43.512;5.220;2022-12-18T06:08:45;4.35;;;3.95;;
65706;SDS011;52423;43.512;5.220;2022-12-18T06:11:11;5.60;;;4.00;;
65706;SDS011;52423;43.512;5.220;2022-12-18T06:13:37;6.35;;;4.40;;
65706;SDS011;52423;43.512;5.220;2022-12-18T06:16:04;10.43;;;4.63;;
65706;SDS011;52423;43.512;5.220;2022-12-18T06:18:30;7.95;;;4.13;;
65706;SDS011;52423;43.512;5.220;2022-12-18T06:20:56;10.45;;;4.07;;
65706;SDS011;52423;43.512;5.220;2022-12-18T06:23:22;5.43;;;3.92;;
65706;SDS011;52423;43.512;5.220;2022-12-18T06:25:47;4.28;;;3.88;;
65706;SDS011;52423;43.512;5.220;2022-12-18T06:28:13;5.18;;;4.03;;
65706;SDS011;52423;43.512;5.220;2022-12-18T06:30:38;4.63;;;4.10;;
65706;SDS011;52423;43.512;5.220;2022-12-18T06:33:03;6.53;;;3.90;;
65706;SDS011;52423;43.512;5.220;2022-12-18T06:35:28;5.57;;;4.05;;
65706;SDS011;52423;43.512;5.220;2022-12-18T06:37:54;4.63;;;3.78;;
65706;SDS011;52423;43.512;5.220;2022-12-18T06:40:19;5.90;;;4.03;;
65706;SDS011;52423;43.512;5.220;2022-12-18T06:42:45;4.00;;;3.70;;
65706;SDS011;52423;43.512;5.220;2022-12-18T06:45:10;6.15;;;4.03;;
65706;SDS011;52423;43.512;5.220;2022-12-18T06:47:36;5.57;;;4.30;;
65706;SDS011;52423;43.512;5.220;2022-12-18T06:50:01;5.78;;;4.32;;
65706;SDS011;52423;43.512;5.220;2022-12-18T06:52:27;7.20;;;4.15;;
65706;SDS011;52423;43.512;5.220;2022-12-18T06:54:53;6.82;;;4.60;;
65706;SDS011;52423;43.512;5.220;2022-12-18T06:57:18;5.78;;;4.53;;
65706;SDS011;52423;43.512;5.220;2022-12-18T06:59:43;5.38;;;4.32;;
65706;SDS011;52423;43.512;5.220;2022-12-18T07:02:12;13.52;;;4.30;;
65706;SDS011;52423;43.512;5.220;2022-12-18T07:04:37;5.93;;;4.53;;
65706;SDS011;52423;43.512;5.220;2022-12-18T07:07:03;7.32;;;5.00;;
65706;SDS011;52423;43.512;5.220;2022-12-18T07:09:28;6.13;;;4.60;;
65706;SDS011;52423;43.512;5.220;2022-12-18T07:11:54;4.47;;;3.92;;
65706;SDS011;52423;43.512;5.220;2022-12-18T07:14:19;6.10;;;4.03;;
65706;SDS011;52423;43.512;5.220;2022-12-18T07:16:44;6.82;;;4.25;;
65706;SDS011;52423;43.512;5.220;2022-12-18T07:19:10;5.72;;;3.70;;
65706;SDS011;52423;43.512;5.220;2022-12-18T07:21:35;7.20;;;3.95;;
65706;SDS011;52423;43.512;5.220;2022-12-18T07:24:00;5.28;;;3.97;;
65706;SDS011;52423;43.512;5.220;2022-12-18T07:26:26;6.93;;;4.80;;
65706;SDS011;52423;43.512;5.220;2022-12-18T07:28:53;7.72;;;4.35;;
65706;SDS011;52423;43.512;5.220;2022-12-18T07:31:20;7.05;;;4.57;;
65706;SDS011;52423;43.512;5.220;2022-12-18T07:33:46;4.80;;;3.72;;
65706;SDS011;52423;43.512;5.220;2022-12-18T07:36:12;7.13;;;4.18;;
65706;SDS011;52423;43.512;5.220;2022-12-18T07:38:39;4.57;;;3.83;;
65706;SDS011;52423;43.512;5.220;2022-12-18T07:41:05;11.40;;;4.28;;
65706;SDS011;52423;43.512;5.220;2022-12-18T07:43:36;7.40;;;3.92;;
65706;SDS011;52423;43.512;5.220;2022-12-18T07:46:02;7.30;;;3.60;;
65706;SDS011;52423;43.512;5.220;2022-12-18T07:48:28;5.43;;;3.78;;
65706;SDS011;52423;43.512;5.220;2022-12-18T07:50:57;7.55;;;4.32;;
65706;SDS011;52423;43.512;5.220;2022-12-18T07:53:26;5.63;;;4.30;;
65706;SDS011;52423;43.512;5.220;2022-12-18T07:55:59;6.82;;;5.10;;
65706;SDS011;52423;43.512;5.220;2022-12-18T07:58:27;11.30;;;5.15;;
65706;SDS011;52423;43.512;5.220;2022-12-18T08:00:53;5.38;;;3.83;;
65706;SDS011;52423;43.512;5.220;2022-12-18T08:03:18;6.10;;;4.28;;
65706;SDS011;52423;43.512;5.220;2022-12-18T08:05:44;5.85;;;3.83;;
65706;SDS011;52423;43.512;5.220;2022-12-18T08:08:10;5.95;;;3.33;;
65706;SDS011;52423;43.512;5.220;2022-12-18T08:10:35;5.20;;;2.95;;
65706;SDS011;52423;43.512;5.220;2022-12-18T08:13:00;3.75;;;2.60;;
65706;SDS011;52423;43.512;5.220;2022-12-18T08:15:26;5.28;;;3.00;;
65706;SDS011;52423;43.512;5.220;2022-12-18T08:17:51;8.15;;;3.22;;
65706;SDS011;52423;43.512;5.220;2022-12-18T08:20:16;6.22;;;2.75;;
65706;SDS011;52423;43.512;5.220;2022-12-18T08:22:43;3.35;;;3.05;;
65706;SDS011;52423;43.512;5.220;2022-12-18T08:25:08;4.90;;;3.10;;
65706;SDS011;52423;43.512;5.220;2022-12-18T08:27:34;2.92;;;2.72;;
65706;SDS011;52423;43.512;5.220;2022-12-18T08:30:00;5.07;;;3.30;;
65706;SDS011;52423;43.512;5.220;2022-12-18T08:32:26;6.40;;;3.13;;
65706;SDS011;52423;43.512;5.220;2022-12-18T08:34:52;5.57;;;3.35;;
65706;SDS011;52423;43.512;5.220;2022-12-18T08:37:17;6.25;;;3.47;;
65706;SDS011;52423;43.512;5.220;2022-12-18T08:39:43;5.63;;;3.40;;
65706;SDS011;52423;43.512;5.220;2022-12-18T08:42:09;5.82;;;3.20;;
65706;SDS011;52423;43.512;5.220;2022-12-18T08:44:53;4.80;;;3.17;;
65706;SDS011;52423;43.512;5.220;2022-12-18T08:47:18;6.25;;;3.00;;
65706;SDS011;52423;43.512;5.220;2022-12-18T08:49:43;3.15;;;2.85;;
65706;SDS011;52423;43.512;5.220;2022-12-18T08:52:09;5.70;;;3.33;;
65706;SDS011;52423;43.512;5.220;2022-12-18T08:56:39;5.75;;;2.78;;
65706;SDS011;52423;43.512;5.220;2022-12-18T08:59:04;5.60;;;3.65;;
65706;SDS011;52423;43.512;5.220;2022-12-18T09:01:30;5.30;;;3.33;;
65706;SDS011;52423;43.512;5.220;2022-12-18T09:03:55;5.80;;;3.25;;
65706;SDS011;52423;43.512;5.220;2022-12-18T09:06:21;5.40;;;3.28;;
65706;SDS011;52423;43.512;5.220;2022-12-18T09:08:48;5.95;;;3.28;;
65706;SDS011;52423;43.512;5.220;2022-12-18T09:11:20;7.72;;;4.25;;
65706;SDS011;52423;43.512;5.220;2022-12-18T09:13:48;3.78;;;3.20;;
65706;SDS011;52423;43.512;5.220;2022-12-18T09:16:14;5.38;;;3.72;;
65706;SDS011;52423;43.512;5.220;2022-12-18T09:18:41;6.55;;;4.47;;
65706;SDS011;52423;43.512;5.220;2022-12-18T09:21:13;5.93;;;3.60;;
65706;SDS011;52423;43.512;5.220;2022-12-18T09:23:40;3.67;;;3.10;;
65706;SDS011;52423;43.512;5.220;2022-12-18T09:26:06;4.30;;;3.50;;
65706;SDS011;52423;43.512;5.220;2022-12-18T09:28:32;9.75;;;3.50;;
65706;SDS011;52423;43.512;5.220;2022-12-18T09:30:58;5.47;;;3.47;;
65706;SDS011;52423;43.512;5.220;2022-12-18T09:33:23;4.82;;;3.35;;
65706;SDS011;52423;43.512;5.220;2022-12-18T09:35:49;4.15;;;3.22;;
65706;SDS011;52423;43.512;5.220;2022-12-18T09:38:16;3.45;;;3.03;;
65706;SDS011;52423;43.512;5.220;2022-12-18T09:40:44;7.90;;;3.28;;
65706;SDS011;52423;43.512;5.220;2022-12-18T09:43:22;5.50;;;3.47;;
65706;SDS011;52423;43.512;5.220;2022-12-18T09:45:54;4.38;;;2.88;;
65706;SDS011;52423;43.512;5.220;2022-12-18T09:48:26;4.65;;;3.15;;
65706;SDS011;52423;43.512;5.220;2022-12-18T09:50:57;5.90;;;3.28;;
65706;SDS011;52423;43.512;5.220;2022-12-18T09:53:28;3.50;;;2.57;;
65706;SDS011;52423;43.512;5.220;2022-12-18T09:55:57;5.05;;;3.13;;
65706;SDS011;52423;43.512;5.220;2022-12-18T10:01:10;6.05;;;3.13;;
65706;SDS011;52423;43.512;5.220;2022-12-18T10:03:39;7.95;;;3.00;;
65706;SDS011;52423;43.512;5.220;2022-12-18T10:06:13;6.88;;;3.38;;
65706;SDS011;52423;43.512;5.220;2022-12-18T10:19:57;7.63;;;3.70;;
65706;SDS011;52423;43.512;5.220;2022-12-18T10:27:45;6.28;;;3.40;;
65706;SDS011;52423;43.512;5.220;2022-12-18T10:30:18;4.53;;;3.00;;
65706;SDS011;52423;43.512;5.220;2022-12-18T10:32:45;7.55;;;2.80;;
65706;SDS011;52423;43.512;5.220;2022-12-18T10:35:24;5.28;;;3.10;;
65706;SDS011;52423;43.512;5.220;2022-12-18T10:43:14;5.03;;;2.63;;
65706;SDS011;52423;43.512;5.220;2022-12-18T10:45:41;4.25;;;2.67;;
65706;SDS011;52423;43.512;5.220;2022-12-18T10:48:19;2.65;;;2.38;;
65706;SDS011;52423;43.512;5.220;2022-12-18T10:50:47;10.70;;;3.03;;
65706;SDS011;52423;43.512;5.220;2022-12-18T10:53:19;5.72;;;2.80;;
65706;SDS011;52423;43.512;5.220;2022-12-18T10:55:47;8.02;;;3.15;;
65706;SDS011;52423;43.512;5.220;2022-12-18T10:58:21;7.07;;;3.60;;
65706;SDS011;52423;43.512;5.220;2022-12-18T11:03:44;9.70;;;4.40;;
65706;SDS011;52423;43.512;5.220;2022-12-18T11:06:15;6.32;;;4.63;;
65706;SDS011;52423;43.512;5.220;2022-12-18T11:08:42;5.93;;;4.00;;
65706;SDS011;52423;43.512;5.220;2022-12-18T11:11:22;9.32;;;4.85;;
65706;SDS011;52423;43.512;5.220;2022-12-18T11:16:28;5.97;;;3.65;;
65706;SDS011;52423;43.512;5.220;2022-12-18T11:19:07;6.78;;;2.80;;
65706;SDS011;52423;43.512;5.220;2022-12-18T11:24:13;6.88;;;3.78;;
65706;SDS011;52423;43.512;5.220;2022-12-18T11:26:46;7.90;;;3.60;;
65706;SDS011;52423;43.512;5.220;2022-12-18T11:29:16;9.82;;;3.13;;
65706;SDS011;52423;43.512;5.220;2022-12-18T11:31:43;7.63;;;3.23;;
65706;SDS011;52423;43.512;5.220;2022-12-18T11:34:12;7.30;;;3.10;;
65706;SDS011;52423;43.512;5.220;2022-12-18T11:36:45;8.52;;;3.38;;
65706;SDS011;52423;43.512;5.220;2022-12-18T11:39:17;7.82;;;3.17;;
65706;SDS011;52423;43.512;5.220;2022-12-18T11:41:50;8.32;;;3.67;;
65706;SDS011;52423;43.512;5.220;2022-12-18T11:44:52;6.40;;;3.40;;
65706;SDS011;52423;43.512;5.220;2022-12-18T11:53:02;7.68;;;3.22;;
65706;SDS011;52423;43.512;5.220;2022-12-18T12:00:43;8.98;;;2.83;;
65706;SDS011;52423;43.512;5.220;2022-12-18T12:03:22;8.45;;;3.70;;
65706;SDS011;52423;43.512;5.220;2022-12-18T12:06:06;8.93;;;3.45;;
65706;SDS011;52423;43.512;5.220;2022-12-18T12:14:21;6.90;;;3.05;;
65706;SDS011;52423;43.512;5.220;2022-12-18T12:16:57;9.63;;;4.70;;
65706;SDS011;52423;43.512;5.220;2022-12-18T12:24:57;8.00;;;4.95;;
65706;SDS011;52423;43.512;5.220;2022-12-18T12:28:11;14.18;;;3.80;;
65706;SDS011;52423;43.512;5.220;2022-12-18T12:30:24;7.00;;;3.13;;
65706;SDS011;52423;43.512;5.220;2022-12-18T12:40:42;8.32;;;3.10;;
65706;SDS011;52423;43.512;5.220;2022-12-18T12:45:50;11.02;;;2.63;;
65706;SDS011;52423;43.512;5.220;2022-12-18T12:48:36;5.55;;;2.75;;
65706;SDS011;52423;43.512;5.220;2022-12-18T12:53:44;8.38;;;2.60;;
65706;SDS011;52423;43.512;5.220;2022-12-18T12:56:12;5.57;;;2.80;;
65706;SDS011;52423;43.512;5.220;2022-12-18T13:07:53;9.50;;;2.95;;
65706;SDS011;52423;43.512;5.220;2022-12-18T13:10:24;7.10;;;3.42;;
65706;SDS011;52423;43.512;5.220;2022-12-18T13:12:58;7.47;;;3.00;;
65706;SDS011;52423;43.512;5.220;2022-12-18T13:15:44;13.52;;;3.33;;
65706;SDS011;52423;43.512;5.220;2022-12-18T13:20:49;5.03;;;3.03;;
65706;SDS011;52423;43.512;5.220;2022-12-18T13:23:27;7.88;;;3.78;;
65706;SDS011;52423;43.512;5.220;2022-12-18T13:25:54;3.90;;;3.10;;
65706;SDS011;52423;43.512;5.220;2022-12-18T13:31:11;5.35;;;2.90;;
65706;SDS011;52423;43.512;5.220;2022-12-18T13:33:38;5.00;;;2.60;;
65706;SDS011;52423;43.512;5.220;2022-12-18T13:38:38;6.82;;;3.05;;
65706;SDS011;52423;43.512;5.220;2022-12-18T13:41:20;5.00;;;2.67;;
65706;SDS011;52423;43.512;5.220;2022-12-18T13:46:27;5.30;;;3.30;;
65706;SDS011;52423;43.512;5.220;2022-12-18T13:51:25;3.78;;;3.00;;
65706;SDS011;52423;43.512;5.220;2022-12-18T13:56:31;6.03;;;2.47;;
65706;SDS011;52423;43.512;5.220;2022-12-18T14:04:21;8.93;;;3.30;;
65706;SDS011;52423;43.512;5.220;2022-12-18T14:06:49;7.35;;;3.00;;
65706;SDS011;52423;43.512;5.220;2022-12-18T14:09:18;10.93;;;2.38;;
65706;SDS011;52423;43.512;5.220;2022-12-18T14:11:50;6.07;;;2.60;;
65706;SDS011;52423;43.512;5.220;2022-12-18T14:14:17;4.63;;;2.13;;
65706;SDS011;52423;43.512;5.220;2022-12-18T14:16:44;4.82;;;2.53;;
65706;SDS011;52423;43.512;5.220;2022-12-18T14:19:12;7.13;;;2.42;;
65706;SDS011;52423;43.512;5.220;2022-12-18T14:21:45;5.90;;;2.70;;
65706;SDS011;52423;43.512;5.220;2022-12-18T14:24:13;8.98;;;2.67;;
65706;SDS011;52423;43.512;5.220;2022-12-18T14:26:40;5.00;;;2.75;;
65706;SDS011;52423;43.512;5.220;2022-12-18T14:29:25;6.85;;;2.85;;
65706;SDS011;52423;43.512;5.220;2022-12-18T14:34:38;5.93;;;2.22;;
65706;SDS011;52423;43.512;5.220;2022-12-18T14:37:04;5.20;;;2.53;;
65706;SDS011;52423;43.512;5.220;2022-12-18T14:39:33;6.13;;;2.40;;
65706;SDS011;52423;43.512;5.220;2022-12-18T14:41:58;10.77;;;3.13;;
65706;SDS011;52423;43.512;5.220;2022-12-18T14:44:24;10.20;;;3.30;;
65706;SDS011;52423;43.512;5.220;2022-12-18T14:46:49;10.82;;;2.80;;
65706;SDS011;52423;43.512;5.220;2022-12-18T14:51:47;10.50;;;3.72;;
65706;SDS011;52423;43.512;5.220;2022-12-18T14:54:15;12.93;;;4.65;;
65706;SDS011;52423;43.512;5.220;2022-12-18T14:56:44;7.95;;;3.55;;
65706;SDS011;52423;43.512;5.220;2022-12-18T14:59:13;8.02;;;3.10;;
65706;SDS011;52423;43.512;5.220;2022-12-18T15:01:48;10.85;;;3.80;;
65706;SDS011;52423;43.512;5.220;2022-12-18T15:07:05;12.57;;;4.80;;
65706;SDS011;52423;43.512;5.220;2022-12-18T15:09:36;6.65;;;3.78;;
65706;SDS011;52423;43.512;5.220;2022-12-18T15:12:02;6.93;;;3.67;;
65706;SDS011;52423;43.512;5.220;2022-12-18T15:14:33;5.97;;;3.55;;
65706;SDS011;52423;43.512;5.220;2022-12-18T15:17:00;8.88;;;4.22;;
65706;SDS011;52423;43.512;5.220;2022-12-18T15:19:35;13.48;;;7.53;;
65706;SDS011;52423;43.512;5.220;2022-12-18T15:22:04;15.07;;;6.55;;
65706;SDS011;52423;43.512;5.220;2022-12-18T15:24:41;8.75;;;5.22;;
65706;SDS011;52423;43.512;5.220;2022-12-18T15:27:18;9.18;;;4.22;;
65706;SDS011;52423;43.512;5.220;2022-12-18T15:32:36;11.88;;;7.50;;
65706;SDS011;52423;43.512;5.220;2022-12-18T15:37:33;8.88;;;5.13;;
65706;SDS011;52423;43.512;5.220;2022-12-18T15:39:59;11.88;;;4.03;;
65706;SDS011;52423;43.512;5.220;2022-12-18T15:42:24;9.40;;;3.28;;
65706;SDS011;52423;43.512;5.220;2022-12-18T15:45:11;6.82;;;2.70;;
65706;SDS011;52423;43.512;5.220;2022-12-18T15:47:37;6.03;;;3.05;;
65706;SDS011;52423;43.512;5.220;2022-12-18T15:50:02;5.47;;;2.97;;
65706;SDS011;52423;43.512;5.220;2022-12-18T15:52:28;7.72;;;3.63;;
65706;SDS011;52423;43.512;5.220;2022-12-18T15:54:53;6.68;;;3.30;;
65706;SDS011;52423;43.512;5.220;2022-12-18T15:57:38;4.82;;;2.65;;
65706;SDS011;52423;43.512;5.220;2022-12-18T16:00:03;7.20;;;3.00;;
65706;SDS011;52423;43.512;5.220;2022-12-18T16:02:29;4.60;;;2.83;;
65706;SDS011;52423;43.512;5.220;2022-12-18T16:04:54;10.02;;;3.83;;
65706;SDS011;52423;43.512;5.220;2022-12-18T16:07:20;12.23;;;3.70;;
65706;SDS011;52423;43.512;5.220;2022-12-18T16:09:45;8.77;;;3.85;;
65706;SDS011;52423;43.512;5.220;2022-12-18T16:12:19;6.95;;;3.58;;
65706;SDS011;52423;43.512;5.220;2022-12-18T16:14:47;6.03;;;3.15;;
65706;SDS011;52423;43.512;5.220;2022-12-18T16:17:13;6.20;;;3.00;;
65706;SDS011;52423;43.512;5.220;2022-12-18T16:19:39;4.90;;;3.75;;
65706;SDS011;52423;43.512;5.220;2022-12-18T16:22:12;10.52;;;4.78;;
65706;SDS011;52423;43.512;5.220;2022-12-18T16:24:43;7.93;;;4.15;;
65706;SDS011;52423;43.512;5.220;2022-12-18T16:27:08;7.30;;;4.03;;
65706;SDS011;52423;43.512;5.220;2022-12-18T16:29:33;5.65;;;3.28;;
65706;SDS011;52423;43.512;5.220;2022-12-18T16:31:59;10.23;;;5.15;;
65706;SDS011;52423;43.512;5.220;2022-12-18T16:36:56;13.57;;;5.45;;
65706;SDS011;52423;43.512;5.220;2022-12-18T16:39:23;13.13;;;4.60;;
65706;SDS011;52423;43.512;5.220;2022-12-18T16:41:49;9.90;;;4.65;;
65706;SDS011;52423;43.512;5.220;2022-12-18T16:44:15;15.85;;;4.85;;
65706;SDS011;52423;43.512;5.220;2022-12-18T16:46:40;11.52;;;5.05;;
65706;SDS011;52423;43.512;5.220;2022-12-18T16:49:10;7.05;;;4.07;;
65706;SDS011;52423;43.512;5.220;2022-12-18T16:51:37;16.30;;;5.28;;
65706;SDS011;52423;43.512;5.220;2022-12-18T16:54:02;9.75;;;6.22;;
65706;SDS011;52423;43.512;5.220;2022-12-18T16:56:28;22.73;;;11.68;;
65706;SDS011;52423;43.512;5.220;2022-12-18T16:58:55;24.35;;;15.52;;
65706;SDS011;52423;43.512;5.220;2022-12-18T17:01:22;46.00;;;26.05;;
65706;SDS011;52423;43.512;5.220;2022-12-18T17:03:52;35.25;;;20.58;;
65706;SDS011;52423;43.512;5.220;2022-12-18T17:06:19;24.88;;;15.43;;
65706;SDS011;52423;43.512;5.220;2022-12-18T17:08:45;21.98;;;11.10;;
65706;SDS011;52423;43.512;5.220;2022-12-18T17:11:10;18.33;;;15.10;;
65706;SDS011;52423;43.512;5.220;2022-12-18T17:13:36;24.58;;;16.75;;